Time;durP1;ratioP1;P1;durP2;ratioP2;P2;SDS_P1;SDS_P2;PMS_P1;PMS_P2;Temp;Humidity;BMP_temperature;BMP_pressure;BME280_temperature;BME280_humidity;BME280_pressure;Samples;Min_cycle;Max_cycle;Signal;HPM_P1;HPM_P2
2022/04/11 00:01:56;;;;;;;3.47;2.57;;;2.60;98.40;;;;;;5110099;28;20317;-71
2022/04/11 00:04:23;;;;;;;2.60;2.30;;;2.60;90.80;;;;;;5111414;28;20201;-71
2022/04/11 00:06:50;;;;;;;6.10;2.43;;;2.50;91.50;;;;;;5110544;28;20615;-71
2022/04/11 00:09:17;;;;;;;3.07;2.23;;;2.50;85.50;;;;;;5110533;28;20229;-71
2022/04/11 00:11:44;;;;;;;3.80;2.50;;;2.60;88.60;;;;;;5110024;28;20205;-71
2022/04/11 00:14:13;;;;;;;3.23;2.23;;;2.40;42.50;;;;;;5109687;28;20246;-71
2022/04/11 00:16:40;;;;;;;3.50;2.20;;;2.30;61.50;;;;;;5107349;28;20233;-71
2022/04/11 00:19:08;;;;;;;4.07;2.47;;;2.30;95.70;;;;;;5110113;28;20213;-71
2022/04/11 00:21:35;;;;;;;4.10;2.30;;;2.30;98.60;;;;;;5110716;28;20284;-71
2022/04/11 00:24:02;;;;;;;6.03;3.13;;;2.20;99.90;;;;;;5111159;28;20204;-71
2022/04/11 00:26:29;;;;;;;6.53;2.33;;;2.20;99.90;;;;;;5110046;28;20598;-71
2022/04/11 00:28:56;;;;;;;3.80;2.20;;;2.20;99.90;;;;;;5109922;28;20234;-71
2022/04/11 00:31:25;;;;;;;6.20;2.27;;;2.10;99.90;;;;;;5109833;28;20670;-70
2022/04/11 00:33:51;;;;;;;2.93;2.63;;;2.10;99.90;;;;;;5111561;28;20196;-70
2022/04/11 00:36:18;;;;;;;3.10;2.13;;;2.00;99.90;;;;;;5110205;28;20236;-71
2022/04/11 00:38:45;;;;;;;4.10;2.27;;;2.00;99.90;;;;;;5109430;28;20646;-71
2022/04/11 00:41:12;;;;;;;4.47;2.30;;;2.00;99.90;;;;;;5108795;28;20204;-71
2022/04/11 00:43:41;;;;;;;2.93;2.30;;;1.90;99.90;;;;;;5111312;28;20638;-71
2022/04/11 00:46:09;;;;;;;4.13;2.30;;;2.00;99.90;;;;;;5113830;28;20197;-71
2022/04/11 00:48:39;;;;;;;5.37;2.40;;;1.90;99.90;;;;;;5114125;28;20197;-71
2022/04/11 00:51:10;;;;;;;3.30;2.23;;;1.80;99.90;;;;;;5114024;28;20284;-71
2022/04/11 00:53:40;;;;;;;3.60;2.40;;;1.70;99.90;;;;;;5112057;28;20531;-71
2022/04/11 00:56:10;;;;;;;5.27;2.43;;;1.40;99.90;;;;;;5113854;28;20266;-71
2022/04/11 00:58:37;;;;;;;3.53;2.00;;;1.30;99.90;;;;;;5113417;28;20259;-71
2022/04/11 01:01:06;;;;;;;3.73;2.30;;;1.30;99.90;;;;;;5113062;28;20235;-71
2022/04/11 01:03:33;;;;;;;2.60;2.00;;;1.30;99.90;;;;;;5112917;28;20242;-71
2022/04/11 01:06:03;;;;;;;4.80;2.40;;;1.30;99.90;;;;;;5114288;28;20526;-71
2022/04/11 01:08:30;;;;;;;2.90;2.60;;;1.20;99.90;;;;;;5115574;27;20247;-71
2022/04/11 01:10:57;;;;;;;4.00;2.57;;;1.20;99.90;;;;;;5113958;28;20303;-71
2022/04/11 01:13:24;;;;;;;4.97;2.53;;;1.10;99.90;;;;;;5114468;28;20201;-71
2022/04/11 01:15:54;;;;;;;6.13;2.40;;;1.10;99.90;;;;;;5113736;28;20306;-71
2022/04/11 01:18:22;;;;;;;4.00;2.30;;;1.10;99.90;;;;;;5113869;28;20197;-71
2022/04/11 01:20:49;;;;;;;3.47;2.30;;;1.10;99.90;;;;;;5113263;28;20207;-71
2022/04/11 01:23:17;;;;;;;5.17;2.27;;;1.10;99.90;;;;;;5113166;28;20502;-71
2022/04/11 01:25:50;;;;;;;4.20;2.17;;;1.10;99.90;;;;;;5112400;28;20258;-71
2022/04/11 01:28:17;;;;;;;5.47;2.63;;;1.00;99.90;;;;;;5112602;28;20540;-71
2022/04/11 01:30:44;;;;;;;4.80;2.63;;;1.10;99.90;;;;;;5112280;28;20238;-71
2022/04/11 01:33:19;;;;;;;6.77;2.70;;;1.10;99.90;;;;;;5112717;28;20266;-71
2022/04/11 01:35:47;;;;;;;4.40;3.00;;;1.10;99.90;;;;;;5114083;28;20252;-71
2022/04/11 01:38:14;;;;;;;4.70;2.90;;;1.20;99.90;;;;;;5113599;28;20201;-71
2022/04/11 01:40:49;;;;;;;5.07;2.80;;;1.40;99.90;;;;;;5111617;28;20410;-71
2022/04/11 01:43:16;;;;;;;5.70;3.50;;;1.30;99.90;;;;;;5111948;28;20250;-71
2022/04/11 01:45:43;;;;;;;3.47;2.30;;;1.30;99.90;;;;;;5111987;27;20564;-71
2022/04/11 01:48:11;;;;;;;6.10;2.73;;;1.30;99.90;;;;;;5113292;28;20635;-71
2022/04/11 01:50:37;;;;;;;3.43;2.70;;;1.10;99.90;;;;;;5113227;28;20224;-71
2022/04/11 01:53:05;;;;;;;5.40;2.73;;;1.00;99.90;;;;;;5113110;28;20638;-71
2022/04/11 01:55:32;;;;;;;3.70;2.40;;;1.00;99.90;;;;;;5111739;28;20193;-71
2022/04/11 01:58:01;;;;;;;5.90;2.70;;;1.00;99.90;;;;;;5113322;28;20197;-71
2022/04/11 02:00:28;;;;;;;5.90;2.43;;;0.90;99.90;;;;;;5112092;28;20412;-71
2022/04/11 02:02:55;;;;;;;4.10;2.60;;;0.90;99.90;;;;;;5112058;28;20246;-71
2022/04/11 02:05:22;;;;;;;5.83;2.67;;;0.90;99.90;;;;;;5113244;28;20238;-71
2022/04/11 02:07:50;;;;;;;4.60;2.87;;;1.00;99.90;;;;;;5112782;28;20193;-71
2022/04/11 02:10:17;;;;;;;4.37;2.63;;;1.20;99.90;;;;;;5111613;28;20208;-71
2022/04/11 02:12:44;;;;;;;5.20;2.50;;;1.10;99.90;;;;;;5111821;28;20271;-71
2022/04/11 02:15:12;;;;;;;4.57;2.83;;;0.90;99.90;;;;;;5111043;28;20276;-71
2022/04/11 02:17:39;;;;;;;3.27;2.23;;;1.00;99.90;;;;;;5111867;28;20224;-71
2022/04/11 02:20:08;;;;;;;4.43;2.70;;;1.00;99.90;;;;;;5113026;28;20242;-71
2022/04/11 02:22:46;;;;;;;6.70;3.00;;;1.00;99.90;;;;;;5113450;28;20204;-71
2022/04/11 02:25:13;;;;;;;5.40;2.60;;;0.90;99.90;;;;;;5112251;28;20554;-71
2022/04/11 02:27:40;;;;;;;7.33;2.83;;;0.90;99.90;;;;;;5112080;28;20662;-71
2022/04/11 02:30:08;;;;;;;5.63;2.83;;;1.00;99.90;;;;;;5111996;28;20425;-71
2022/04/11 02:32:37;;;;;;;5.30;2.63;;;1.10;99.90;;;;;;5110981;28;20216;-71
2022/04/11 02:35:04;;;;;;;4.27;2.60;;;0.90;99.90;;;;;;5111650;27;20201;-71
2022/04/11 02:37:31;;;;;;;5.13;2.57;;;0.80;99.90;;;;;;5112536;28;20233;-71
2022/04/11 02:39:58;;;;;;;6.37;2.50;;;0.80;99.90;;;;;;5110649;28;20200;-71
2022/04/11 02:42:26;;;;;;;5.43;2.50;;;1.00;99.90;;;;;;5110624;28;20201;-71
2022/04/11 02:44:54;;;;;;;4.73;2.63;;;1.00;99.90;;;;;;5112175;28;20261;-71
2022/04/11 02:47:21;;;;;;;6.63;3.03;;;0.90;99.90;;;;;;5111107;28;20205;-71
2022/04/11 02:49:50;;;;;;;5.40;2.73;;;0.80;99.90;;;;;;5111256;28;20232;-71
2022/04/11 02:52:17;;;;;;;5.90;2.83;;;0.70;99.90;;;;;;5111497;28;20212;-71
2022/04/11 02:54:44;;;;;;;5.80;2.40;;;0.80;99.90;;;;;;5109789;28;20211;-71
2022/04/11 02:57:11;;;;;;;4.40;2.70;;;0.70;99.90;;;;;;5110048;28;20604;-71
2022/04/11 02:59:38;;;;;;;5.10;2.60;;;0.60;99.90;;;;;;5111343;28;20196;-71
2022/04/11 03:02:06;;;;;;;5.60;2.53;;;0.70;99.90;;;;;;5111090;28;20266;-70
2022/04/11 03:04:32;;;;;;;7.10;3.70;;;0.60;99.90;;;;;;5110333;28;20238;-71
2022/04/11 03:07:01;;;;;;;7.40;3.07;;;0.60;99.90;;;;;;5110685;28;20254;-71
2022/04/11 03:09:28;;;;;;;6.37;2.87;;;0.70;99.90;;;;;;5111645;28;20189;-71
2022/04/11 03:11:55;;;;;;;7.40;3.10;;;0.60;99.90;;;;;;5111803;28;20211;-71
2022/04/11 03:14:22;;;;;;;6.23;2.80;;;0.50;99.90;;;;;;5110485;28;20201;-71
2022/04/11 03:16:49;;;;;;;5.37;2.67;;;0.50;99.90;;;;;;5110435;28;20227;-71
2022/04/11 03:19:16;;;;;;;4.67;3.17;;;0.60;99.90;;;;;;5109612;28;20262;-71
2022/04/11 03:21:43;;;;;;;6.57;2.90;;;0.60;99.90;;;;;;5110563;28;20201;-71
2022/04/11 03:24:12;;;;;;;3.67;2.30;;;0.50;99.90;;;;;;5109210;28;20238;-71
2022/04/11 03:26:39;;;;;;;15.87;7.63;;;0.30;99.90;;;;;;5110911;28;20626;-71
2022/04/11 03:29:06;;;;;;;5.13;3.53;;;0.30;99.90;;;;;;5110983;28;20197;-71
2022/04/11 03:31:32;;;;;;;7.60;4.47;;;0.40;99.90;;;;;;5110412;28;20193;-71
2022/04/11 03:33:59;;;;;;;7.70;3.73;;;0.40;99.90;;;;;;5110340;28;20719;-72
2022/04/11 03:36:26;;;;;;;7.53;3.07;;;0.30;99.90;;;;;;5110082;28;20263;-71
2022/04/11 03:38:53;;;;;;;7.30;3.40;;;0.50;99.90;;;;;;5109343;28;20197;-71
2022/04/11 03:41:22;;;;;;;5.10;2.93;;;0.50;99.90;;;;;;5109698;28;20716;-71
2022/04/11 03:43:49;;;;;;;6.17;2.97;;;0.30;99.90;;;;;;5111157;28;20635;-71
2022/04/11 03:46:16;;;;;;;4.47;2.60;;;0.20;99.90;;;;;;5111675;28;20197;-71
2022/04/11 03:48:43;;;;;;;4.57;3.20;;;0.20;99.90;;;;;;5109901;28;20235;-71
2022/04/11 03:51:10;;;;;;;6.10;3.33;;;0.30;99.90;;;;;;5110525;28;20431;-71
2022/04/11 03:53:37;;;;;;;5.83;3.40;;;0.40;99.90;;;;;;5108668;28;20238;-71
2022/04/11 03:56:05;;;;;;;5.30;3.13;;;0.40;99.90;;;;;;5111603;28;20263;-71
2022/04/11 03:58:33;;;;;;;6.33;3.33;;;0.30;99.90;;;;;;5111317;28;20243;-71
2022/04/11 04:01:00;;;;;;;5.63;3.37;;;0.40;99.90;;;;;;5110060;28;20229;-71
2022/04/11 04:03:27;;;;;;;5.57;3.47;;;0.50;99.90;;;;;;5110749;28;20685;-71
2022/04/11 04:05:54;;;;;;;7.03;3.50;;;0.60;99.90;;;;;;5109996;28;20193;-71
2022/04/11 04:08:22;;;;;;;6.47;3.33;;;0.60;99.90;;;;;;5111254;28;20250;-71
2022/04/11 04:10:49;;;;;;;6.17;4.00;;;0.60;99.90;;;;;;5109152;28;20211;-71
2022/04/11 04:13:16;;;;;;;7.23;3.70;;;0.60;99.90;;;;;;5107527;28;20239;-71
2022/04/11 04:15:44;;;;;;;7.47;3.30;;;0.60;99.90;;;;;;5110976;28;20227;-71
2022/04/11 04:18:12;;;;;;;5.10;3.30;;;0.60;99.90;;;;;;5110707;27;20718;-71
2022/04/11 04:20:40;;;;;;;8.30;4.27;;;0.80;99.90;;;;;;5111737;28;20630;-71
2022/04/11 04:23:07;;;;;;;6.63;3.63;;;0.70;99.90;;;;;;5110762;28;20284;-71
2022/04/11 04:25:35;;;;;;;6.47;3.90;;;0.80;99.90;;;;;;5112045;28;20249;-71
2022/04/11 04:28:02;;;;;;;6.77;3.63;;;1.00;99.90;;;;;;5119246;27;20224;-71
2022/04/11 04:30:29;;;;;;;5.67;3.73;;;1.10;99.90;;;;;;5114507;27;20258;-71
2022/04/11 04:32:58;;;;;;;6.60;3.70;;;1.20;99.90;;;;;;5114276;28;20559;-71
2022/04/11 04:35:25;;;;;;;6.63;3.43;;;1.30;99.90;;;;;;5115251;28;20227;-71
2022/04/11 04:37:53;;;;;;;7.77;3.80;;;1.30;99.90;;;;;;5113724;28;20239;-71
2022/04/11 04:40:20;;;;;;;7.13;3.70;;;1.10;99.90;;;;;;5114736;28;20193;-71
2022/04/11 04:42:47;;;;;;;5.80;3.57;;;1.20;99.90;;;;;;5113776;27;20254;-71
2022/04/11 04:45:15;;;;;;;5.47;3.30;;;1.20;99.90;;;;;;5114059;28;20204;-71
2022/04/11 04:47:42;;;;;;;6.43;3.70;;;1.20;99.90;;;;;;5113202;28;20273;-71
2022/04/11 04:50:10;;;;;;;5.53;3.50;;;1.40;99.90;;;;;;5113756;28;20395;-71
2022/04/11 04:52:39;;;;;;;6.50;3.33;;;1.20;99.90;;;;;;5113893;28;20265;-71
2022/04/11 04:55:07;;;;;;;8.57;4.17;;;1.20;99.90;;;;;;5112801;28;20284;-71
2022/04/11 04:57:34;;;;;;;6.27;3.80;;;1.40;99.90;;;;;;5113958;28;20247;-71
2022/04/11 05:00:01;;;;;;;7.77;4.00;;;1.60;99.90;;;;;;5114106;28;20402;-71
2022/04/11 05:02:35;;;;;;;7.70;3.60;;;1.80;99.90;;;;;;5112883;28;20197;-71
2022/04/11 05:05:08;;;;;;;4.47;3.30;;;1.70;99.90;;;;;;5113276;28;20203;-71
2022/04/11 05:07:37;;;;;;;9.57;3.70;;;1.70;99.90;;;;;;5110035;27;20638;-71
2022/04/11 05:10:06;;;;;;;6.03;3.80;;;1.70;99.90;;;;;;5106638;28;20626;-71
2022/04/11 05:12:40;;;;;;;4.67;2.87;;;1.80;99.90;;;;;;5114171;28;20261;-71
2022/04/11 05:15:08;;;;;;;7.27;3.50;;;1.80;99.90;;;;;;5113560;28;20208;-71
2022/04/11 05:17:35;;;;;;;7.03;3.33;;;1.90;99.90;;;;;;5113671;28;20239;-71
2022/04/11 05:20:02;;;;;;;6.63;3.40;;;2.00;99.90;;;;;;5101494;28;20194;-71
2022/04/11 05:22:29;;;;;;;7.10;3.60;;;2.10;99.90;;;;;;5108927;28;20201;-71
2022/04/11 05:24:57;;;;;;;6.60;3.47;;;2.10;99.90;;;;;;5109195;28;20201;-72
2022/04/11 05:27:25;;;;;;;6.50;3.30;;;2.10;99.90;;;;;;5113452;28;20231;-71
2022/04/11 05:29:52;;;;;;;7.27;4.00;;;2.30;99.90;;;;;;5112624;28;20240;-72
2022/04/11 05:32:19;;;;;;;5.57;3.17;;;2.50;99.90;;;;;;5112764;28;20198;-71
2022/04/11 05:34:45;;;;;;;6.33;3.77;;;2.60;99.90;;;;;;5113372;28;20639;-71
2022/04/11 05:37:12;;;;;;;8.80;3.77;;;2.60;99.90;;;;;;5113148;28;20265;-72
2022/04/11 05:39:39;;;;;;;7.80;3.27;;;2.80;99.90;;;;;;5111776;28;20209;-72
2022/04/11 05:42:09;;;;;;;6.47;4.03;;;3.10;99.90;;;;;;5111569;28;20244;-72
2022/04/11 05:44:36;;;;;;;7.23;3.50;;;3.00;99.90;;;;;;5111589;28;20189;-72
2022/04/11 05:47:03;;;;;;;8.10;3.40;;;3.10;99.90;;;;;;5112366;28;20205;-72
2022/04/11 05:49:30;;;;;;;4.77;3.03;;;3.00;99.90;;;;;;5112385;28;20197;-72
2022/04/11 05:51:57;;;;;;;6.37;3.43;;;3.00;99.90;;;;;;5112336;28;20246;-72
2022/04/11 05:54:24;;;;;;;4.53;3.30;;;3.10;99.90;;;;;;5113484;28;20197;-72
2022/04/11 05:56:52;;;;;;;7.90;3.57;;;3.10;99.90;;;;;;5112143;28;20197;-72
2022/04/11 05:59:21;;;;;;;5.20;3.03;;;3.10;99.90;;;;;;5112998;28;20205;-72
2022/04/11 06:01:48;;;;;;;4.93;3.07;;;3.20;99.90;;;;;;5111828;28;20193;-74
2022/04/11 06:04:15;;;;;;;5.90;3.50;;;3.40;99.90;;;;;;5111877;28;20232;-74
2022/04/11 06:06:41;;;;;;;14.10;3.93;;;3.60;99.90;;;;;;5112282;28;20270;-74
2022/04/11 06:09:08;;;;;;;5.97;3.47;;;3.70;99.90;;;;;;5108343;28;20257;-74
2022/04/11 06:11:35;;;;;;;7.40;3.60;;;3.90;99.90;;;;;;5095487;28;20208;-74
2022/04/11 06:14:02;;;;;;;7.43;3.23;;;4.80;99.90;;;;;;5112214;28;20193;-75
2022/04/11 06:16:31;;;;;;;10.77;3.90;;;5.70;1.00;;;;;;5107721;28;20546;-76
2022/04/11 06:18:58;;;;;;;5.70;3.90;;;6.10;1.00;;;;;;5104905;28;20277;-76
2022/04/11 06:21:25;;;;;;;4.60;3.40;;;6.10;99.90;;;;;;5105900;28;20288;-75
2022/04/11 06:23:52;;;;;;;6.87;3.70;;;6.10;1.00;;;;;;5106508;28;20194;-76
2022/04/11 06:26:19;;;;;;;5.07;3.10;;;6.00;99.90;;;;;;5106984;28;20269;-76
2022/04/11 06:28:46;;;;;;;4.73;3.60;;;6.60;99.90;;;;;;5105722;28;20289;-77
2022/04/11 06:31:14;;;;;;;4.90;3.43;;;6.70;1.00;;;;;;5104782;28;20244;-77
2022/04/11 06:33:43;;;;;;;6.67;3.47;;;6.50;1.00;;;;;;5105923;28;20193;-77
2022/04/11 06:36:10;;;;;;;8.43;3.60;;;6.70;1.00;;;;;;5111298;28;20205;-77
2022/04/11 06:38:37;;;;;;;7.03;3.00;;;6.80;99.90;;;;;;5110011;27;20224;-77
2022/04/11 06:41:05;;;;;;;4.70;2.80;;;6.70;99.90;;;;;;5113394;27;20249;-77
2022/04/11 06:43:32;;;;;;;5.83;3.20;;;7.10;1.00;;;;;;5113943;27;20246;-78
2022/04/11 06:45:58;;;;;;;4.10;2.53;;;7.40;1.00;;;;;;5116414;27;20223;-77
2022/04/11 06:48:26;;;;;;;5.37;2.57;;;7.80;1.00;;;;;;5114068;27;20723;-78
2022/04/11 06:50:54;;;;;;;6.27;3.00;;;7.80;1.00;;;;;;5116094;27;20196;-77
2022/04/11 06:53:22;;;;;;;3.73;2.67;;;7.60;1.00;;;;;;5112122;27;20201;-77
2022/04/11 06:55:49;;;;;;;3.70;2.63;;;7.50;1.00;;;;;;5111163;28;20262;-77
2022/04/11 06:58:16;;;;;;;4.27;3.03;;;7.80;1.00;;;;;;5111534;27;20228;-77
2022/04/11 07:00:44;;;;;;;3.67;2.40;;;8.10;1.00;;;;;;5116456;27;20229;-77
2022/04/11 07:03:11;;;;;;;5.47;2.70;;;8.60;1.00;;;;;;5111191;28;20299;-77
2022/04/11 07:05:38;;;;;;;2.93;2.63;;;8.70;99.90;;;;;;5110329;27;20262;-77
2022/04/11 07:08:08;;;;;;;4.90;2.57;;;8.90;56.40;;;;;;5111808;28;20209;-77
2022/04/11 07:10:37;;;;;;;4.47;2.63;;;8.60;99.90;;;;;;5114972;27;20618;-77
2022/04/11 07:13:04;;;;;;;3.07;2.30;;;8.20;99.90;;;;;;5104780;28;20209;-77
2022/04/11 07:15:32;;;;;;;3.50;2.20;;;8.40;1.00;;;;;;5112177;27;20208;-77
2022/04/11 07:17:59;;;;;;;3.00;2.53;;;8.40;1.00;;;;;;5111100;27;20266;-77
2022/04/11 07:20:26;;;;;;;5.43;2.30;;;8.10;1.00;;;;;;5108031;27;20197;-77
2022/04/11 07:22:53;;;;;;;5.60;2.23;;;7.80;1.00;;;;;;5113235;27;20662;-77
2022/04/11 07:25:23;;;;;;;4.83;2.63;;;7.90;1.00;;;;;;5111865;28;20736;-77
2022/04/11 07:27:50;;;;;;;3.50;2.57;;;8.20;1.00;;;;;;5110502;28;20532;-77
2022/04/11 07:30:18;;;;;;;7.03;2.47;;;8.30;99.90;;;;;;5109945;27;20192;-77
2022/04/11 07:32:44;;;;;;;5.57;2.40;;;8.90;90.80;;;;;;5112827;27;20201;-77
2022/04/11 07:35:11;;;;;;;3.87;2.37;;;9.60;1.00;;;;;;5111903;28;20246;-77
2022/04/11 07:37:38;;;;;;;5.60;2.70;;;9.50;1.00;;;;;;5111966;27;20224;-77
2022/04/11 07:40:07;;;;;;;3.53;2.50;;;9.70;1.00;;;;;;5115126;27;20196;-77
2022/04/11 07:42:38;;;;;;;3.40;2.50;;;9.20;1.00;;;;;;5114785;27;20205;-77
2022/04/11 07:45:06;;;;;;;4.30;2.17;;;9.30;1.00;;;;;;5102839;28;20242;-77
2022/04/11 07:47:33;;;;;;;4.37;2.40;;;9.30;1.00;;;;;;5111817;27;20201;-76
2022/04/11 07:50:00;;;;;;;3.30;2.50;;;9.20;1.00;;;;;;5117906;27;20205;-76
2022/04/11 07:52:27;;;;;;;5.13;2.40;;;9.20;1.00;;;;;;5106125;28;20197;-77
2022/04/11 07:54:54;;;;;;;3.70;2.20;;;9.20;1.00;;;;;;5113347;27;20201;-77
2022/04/11 07:57:21;;;;;;;5.60;2.73;;;8.90;1.00;;;;;;5110864;28;20204;-76
2022/04/11 07:59:49;;;;;;;4.13;2.10;;;9.00;1.00;;;;;;5111944;28;20287;-77
2022/04/11 08:02:24;;;;;;;5.57;2.73;;;9.00;1.00;;;;;;5111141;28;20678;-77
2022/04/11 08:04:51;;;;;;;3.53;2.30;;;9.00;1.00;;;;;;5112471;28;20223;-77
2022/04/11 08:07:18;;;;;;;3.33;2.33;;;9.20;1.00;;;;;;5109618;28;20649;-77
2022/04/11 08:09:45;;;;;;;4.47;2.87;;;9.30;1.00;;;;;;5109588;28;20646;-76
2022/04/11 08:12:12;;;;;;;4.50;2.37;;;9.50;1.00;;;;;;5118192;28;20192;-77
2022/04/11 08:14:39;;;;;;;5.73;2.90;;;9.70;1.00;;;;;;5110809;28;20201;-77
2022/04/11 08:17:07;;;;;;;3.60;2.50;;;10.00;1.00;;;;;;5114564;28;20250;-77
2022/04/11 08:19:34;;;;;;;4.43;2.97;;;10.10;1.00;;;;;;5109278;28;20575;-77
2022/04/11 08:22:01;;;;;;;4.17;2.90;;;10.50;1.00;;;;;;5114673;28;20189;-77
2022/04/11 08:24:28;;;;;;;5.20;3.00;;;10.20;1.00;;;;;;5111262;28;20218;-78
2022/04/11 08:26:58;;;;;;;4.10;3.03;;;10.40;1.00;;;;;;5110899;28;20204;-78
2022/04/11 08:29:25;;;;;;;5.40;2.73;;;10.10;1.00;;;;;;5109870;28;20665;-77
2022/04/11 08:31:52;;;;;;;4.97;2.83;;;10.40;99.90;;;;;;5111559;28;20201;-77
2022/04/11 08:34:21;;;;;;;4.30;2.90;;;10.50;99.90;;;;;;5109587;28;20243;-77
2022/04/11 08:36:48;;;;;;;4.07;2.70;;;10.70;1.00;;;;;;5112827;28;20220;-77
2022/04/11 08:39:16;;;;;;;3.00;2.70;;;11.00;99.90;;;;;;5105159;28;20309;-77
2022/04/11 08:41:44;;;;;;;3.23;2.90;;;10.80;1.00;;;;;;5100021;28;20208;-77
2022/04/11 08:44:13;;;;;;;4.57;2.80;;;10.90;1.00;;;;;;5090260;28;20247;-77
2022/04/11 08:46:40;;;;;;;5.30;2.50;;;11.00;1.00;;;;;;5106987;28;20205;-77
2022/04/11 08:49:08;;;;;;;2.60;2.20;;;11.40;1.00;;;;;;5111328;28;20229;-77
2022/04/11 08:51:37;;;;;;;5.77;2.40;;;11.50;1.00;;;;;;5111343;28;20703;-78
2022/04/11 08:54:05;;;;;;;6.47;2.87;;;11.60;1.00;;;;;;5110940;28;20247;-77
2022/04/11 08:56:34;;;;;;;3.63;2.50;;;11.60;1.00;;;;;;5111617;28;20201;-77
2022/04/11 08:59:02;;;;;;;4.97;2.60;;;11.40;1.00;;;;;;5110772;28;20259;-77
2022/04/11 09:01:29;;;;;;;4.00;2.70;;;11.50;1.00;;;;;;5109633;28;20209;-77
2022/04/11 09:03:56;;;;;;;4.03;2.47;;;11.90;1.00;;;;;;5111014;28;20205;-77
2022/04/11 09:06:24;;;;;;;3.33;2.90;;;12.00;1.00;;;;;;5113216;28;20201;-77
2022/04/11 09:08:54;;;;;;;5.60;2.50;;;12.00;1.00;;;;;;5117842;27;20258;-77
2022/04/11 09:11:30;;;;;;;5.90;2.67;;;12.30;1.00;;;;;;5114391;28;20208;-77
2022/04/11 09:13:58;;;;;;;2.83;2.50;;;13.00;1.00;;;;;;5114141;28;20291;-77
2022/04/11 09:16:25;;;;;;;3.53;2.57;;;13.10;1.00;;;;;;5113722;28;20354;-77
2022/04/11 09:18:54;;;;;;;4.33;2.40;;;13.20;1.00;;;;;;5104870;28;20217;-77
2022/04/11 09:21:23;;;;;;;4.80;2.37;;;13.20;1.00;;;;;;5112863;28;20292;-77
2022/04/11 09:24:12;;;;;;;5.70;2.60;;;13.70;1.00;;;;;;5104322;28;20190;-77
2022/04/11 09:26:40;;;;;;;2.80;2.40;;;14.10;1.00;;;;;;5111483;28;20778;-77
2022/04/11 09:29:08;;;;;;;3.50;2.37;;;13.90;1.00;;;;;;5113877;28;20205;-77
2022/04/11 09:31:35;;;;;;;6.10;2.83;;;13.80;1.00;;;;;;5112361;28;20540;-77
2022/04/11 09:34:15;;;;;;;3.13;2.43;;;13.80;1.00;;;;;;5113895;28;20607;-77
2022/04/11 09:36:50;;;;;;;5.60;2.30;;;14.20;1.00;;;;;;5114669;28;20201;-77
2022/04/11 09:39:22;;;;;;;4.20;2.37;;;14.30;1.00;;;;;;5114269;28;20212;-77
2022/04/11 09:41:50;;;;;;;3.57;2.60;;;14.30;1.00;;;;;;5112030;28;20643;-77
2022/04/11 09:44:21;;;;;;;4.77;2.80;;;14.50;2.80;;;;;;5113743;28;20201;-77
2022/04/11 09:46:49;;;;;;;4.37;3.20;;;14.60;4.70;;;;;;5114375;28;20625;-77
2022/04/11 09:49:17;;;;;;;5.43;2.50;;;14.80;2.00;;;;;;5114724;28;20280;-77
2022/04/11 09:52:06;;;;;;;5.27;2.60;;;14.60;1.00;;;;;;5114742;28;20244;-77
2022/04/11 09:54:35;;;;;;;6.40;2.90;;;14.40;1.00;;;;;;5113833;28;20193;-77
2022/04/11 09:57:03;;;;;;;6.13;2.80;;;14.30;1.00;;;;;;5113541;28;20231;-77
2022/04/11 09:59:30;;;;;;;5.33;2.80;;;14.50;1.00;;;;;;5113193;28;20732;-77
2022/04/11 10:01:58;;;;;;;5.27;3.10;;;14.00;8.70;;;;;;5112543;28;20266;-77
2022/04/11 10:04:26;;;;;;;3.47;2.40;;;14.30;8.90;;;;;;5113776;28;20219;-77
2022/04/11 10:06:53;;;;;;;5.07;3.00;;;14.80;7.40;;;;;;5112670;28;20448;-79
2022/04/11 10:09:23;;;;;;;5.60;2.80;;;14.80;7.40;;;;;;5113666;28;20193;-77
2022/04/11 10:11:53;;;;;;;4.47;2.70;;;15.00;5.00;;;;;;5112900;28;20227;-77
2022/04/11 10:14:26;;;;;;;4.60;3.40;;;15.00;6.20;;;;;;5113417;28;20197;-77
2022/04/11 10:16:56;;;;;;;3.97;2.93;;;15.10;4.20;;;;;;5112261;28;20626;-77
2022/04/11 10:19:28;;;;;;;4.95;3.70;;;15.00;1.00;;;;;;5110960;28;20217;-77
2022/04/11 10:21:58;;;;;;;4.70;3.20;;;15.20;1.60;;;;;;5112399;28;20201;-77
2022/04/11 10:24:34;;;;;;;7.10;3.33;;;14.60;1.00;;;;;;5113458;28;20202;-77
2022/04/11 10:27:25;;;;;;;5.20;3.13;;;14.20;3.60;;;;;;5110609;28;20242;-77
2022/04/11 10:29:53;;;;;;;5.17;3.43;;;13.70;2.10;;;;;;5104600;28;20201;-77
2022/04/11 10:32:22;;;;;;;5.57;3.50;;;14.50;4.80;;;;;;5111709;28;20350;-77
2022/04/11 10:34:54;;;;;;;6.03;3.60;;;13.90;1.00;;;;;;5111695;28;20200;-77
2022/04/11 10:37:23;;;;;;;5.10;3.77;;;14.20;1.50;;;;;;5112837;28;20208;-79
2022/04/11 10:39:52;;;;;;;6.90;4.03;;;14.10;1.00;;;;;;5112630;28;20270;-77
2022/04/11 10:42:23;;;;;;;5.82;3.20;;;15.20;1.20;;;;;;5112882;28;20273;-77
2022/04/11 10:44:53;;;;;;;6.10;3.90;;;15.30;1.00;;;;;;5113184;28;20558;-77
2022/04/11 10:47:30;;;;;;;7.00;3.87;;;15.10;1.00;;;;;;5112001;28;20634;-77
2022/04/11 10:50:22;;;;;;;8.37;4.47;;;15.20;1.00;;;;;;5111524;28;20204;-77
2022/04/11 10:53:06;;;;;;;5.07;3.80;;;15.10;1.00;;;;;;5101460;28;20208;-77
2022/04/11 10:55:34;;;;;;;4.13;3.47;;;15.30;1.00;;;;;;5111955;28;20201;-77
2022/04/11 10:58:03;;;;;;;4.78;3.40;;;15.40;1.00;;;;;;5112876;28;20201;-77
2022/04/11 11:00:32;;;;;;;5.85;3.03;;;15.40;1.00;;;;;;5111617;28;20201;-77
2022/04/11 11:03:14;;;;;;;4.30;3.40;;;15.60;1.00;;;;;;5112698;28;20211;-77
2022/04/11 11:05:43;;;;;;;6.90;3.45;;;15.40;1.00;;;;;;5111748;28;20222;-76
2022/04/11 11:08:34;;;;;;;4.75;3.53;;;15.50;1.00;;;;;;5112957;28;20443;-76
2022/04/11 11:11:18;;;;;;;7.22;3.60;;;15.60;1.00;;;;;;5106418;28;20212;-77
2022/04/11 11:13:46;;;;;;;6.90;3.80;;;15.40;1.00;;;;;;5112093;28;20212;-77
2022/04/11 11:16:37;;;;;;;7.32;3.60;;;15.40;1.00;;;;;;5111583;28;20196;-77
2022/04/11 11:19:17;;;;;;;4.38;3.42;;;15.10;1.00;;;;;;5111338;28;20223;-77
2022/04/11 11:22:05;;;;;;;7.30;3.75;;;15.30;1.00;;;;;;5112291;28;20215;-77
2022/04/11 11:24:33;;;;;;;8.27;3.90;;;15.50;1.00;;;;;;5111435;28;20670;-77
2022/04/11 11:27:05;;;;;;;7.30;4.13;;;15.50;1.00;;;;;;5110901;28;20250;-77
2022/04/11 11:29:41;;;;;;;8.57;4.70;;;15.40;1.00;;;;;;5111378;28;20233;-77
2022/04/11 11:32:12;;;;;;;7.60;3.83;;;14.80;1.00;;;;;;5111148;28;20654;-77
2022/04/11 11:34:40;;;;;;;5.60;3.42;;;14.90;1.00;;;;;;5113065;28;20563;-77
2022/04/11 11:37:10;;;;;;;7.30;4.20;;;15.50;1.00;;;;;;5111797;28;20201;-77
2022/04/11 11:39:39;;;;;;;7.80;4.50;;;15.60;1.00;;;;;;5110526;28;20579;-77
2022/04/11 11:42:09;;;;;;;7.90;4.50;;;15.70;1.00;;;;;;5111598;28;20208;-77
2022/04/11 11:44:44;;;;;;;5.88;4.05;;;15.20;1.00;;;;;;5110602;28;20485;-77
2022/04/11 11:47:11;;;;;;;5.78;3.83;;;14.90;1.00;;;;;;5110590;28;20568;-77
2022/04/11 11:49:41;;;;;;;5.57;4.32;;;15.50;1.00;;;;;;5126738;27;20497;-77
2022/04/11 11:52:16;;;;;;;7.70;4.30;;;15.80;1.00;;;;;;5110690;28;20241;-77
2022/04/11 11:54:44;;;;;;;4.88;4.13;;;15.30;1.00;;;;;;5111303;28;20193;-77
2022/04/11 11:57:17;;;;;;;7.75;4.53;;;16.20;1.00;;;;;;5112134;28;20189;-77
2022/04/11 11:59:50;;;;;;;7.35;4.50;;;14.60;1.00;;;;;;5111204;28;20566;-77
2022/04/11 12:05:02;;;;;;;4.80;4.00;;;14.50;1.00;;;;;;5110096;28;20212;-77
2022/04/11 12:07:29;;;;;;;5.88;4.82;;;14.70;1.00;;;;;;5110522;28;20658;-77
2022/04/11 12:09:56;;;;;;;6.43;4.53;;;15.50;1.00;;;;;;5111031;28;20207;-77
2022/04/11 12:12:24;;;;;;;5.75;4.00;;;15.40;1.00;;;;;;5110413;28;20205;-77
2022/04/11 12:15:02;;;;;;;5.63;3.90;;;15.70;1.00;;;;;;5111546;28;20232;-78
2022/04/11 12:17:34;;;;;;;7.00;4.10;;;15.90;1.00;;;;;;5110345;28;20250;-77
2022/04/11 12:20:13;;;;;;;7.40;4.50;;;15.80;1.00;;;;;;5110560;28;20265;-77
2022/04/11 12:22:42;;;;;;;4.90;3.97;;;14.80;1.00;;;;;;5109974;28;20205;-77
2022/04/11 12:25:22;;;;;;;6.55;4.10;;;14.60;1.00;;;;;;5109281;28;20253;-77
2022/04/11 12:27:50;;;;;;;4.85;3.88;;;15.70;1.00;;;;;;5109138;28;20228;-77
2022/04/11 12:30:18;;;;;;;7.15;4.68;;;16.00;1.00;;;;;;5110712;28;20288;-77
2022/04/11 12:32:45;;;;;;;7.63;4.28;;;16.40;1.00;;;;;;5110927;28;20197;-77
2022/04/11 12:35:17;;;;;;;5.70;4.35;;;15.60;1.00;;;;;;5111783;28;20653;-77
2022/04/11 12:37:49;;;;;;;5.13;4.28;;;14.70;1.00;;;;;;5100350;28;20204;-77
2022/04/11 12:40:17;;;;;;;4.85;4.15;;;14.60;1.00;;;;;;5112341;28;20209;-77
2022/04/11 12:42:45;;;;;;;4.93;4.15;;;15.70;1.00;;;;;;5115339;28;20261;-77
2022/04/11 12:45:14;;;;;;;9.75;4.40;;;15.20;1.00;;;;;;5115490;28;20201;-77
2022/04/11 12:48:01;;;;;;;6.22;4.43;;;14.90;1.00;;;;;;5114134;28;20279;-77
2022/04/11 12:50:29;;;;;;;6.85;4.45;;;14.70;1.00;;;;;;5114975;28;20196;-77
2022/04/11 12:52:56;;;;;;;7.32;5.00;;;15.00;1.00;;;;;;5115003;28;20599;-77
2022/04/11 12:55:28;;;;;;;6.00;4.30;;;16.40;1.00;;;;;;5115054;28;20229;-77
2022/04/11 12:58:03;;;;;;;5.22;3.80;;;16.10;1.00;;;;;;5113655;28;20197;-73
2022/04/11 13:00:32;;;;;;;6.25;4.03;;;15.70;1.00;;;;;;5114243;28;20224;-73
2022/04/11 13:02:59;;;;;;;7.72;4.07;;;16.30;1.00;;;;;;5115132;28;20197;-73
2022/04/11 13:05:29;;;;;;;5.03;3.85;;;16.40;1.00;;;;;;5115180;28;20201;-73
2022/04/11 13:07:56;;;;;;;5.82;3.90;;;16.70;1.00;;;;;;5118112;27;20756;-72
2022/04/11 13:10:24;;;;;;;5.95;4.00;;;15.70;1.00;;;;;;5108083;28;20267;-72